createdAt,value
2023-02-11T00:01:32.549Z,7.20
2023-02-11T00:04:00.350Z,7.20
2023-02-11T00:06:28.841Z,7.20
2023-02-11T00:08:56.567Z,7.20
2023-02-11T00:11:31.346Z,7.20
2023-02-11T00:14:00.156Z,7.20
2023-02-11T00:16:27.257Z,7.20
2023-02-11T00:18:55.397Z,7.20
2023-02-11T00:21:24.726Z,7.10
2023-02-11T00:23:52.003Z,7.10
2023-02-11T00:26:20.631Z,7.10
2023-02-11T00:28:48.743Z,7.10
2023-02-11T00:31:17.788Z,7.10
2023-02-11T00:41:07.769Z,7.10
2023-02-11T00:43:35.904Z,7.10
2023-02-11T00:46:02.876Z,7.10
2023-02-11T00:48:29.713Z,7.10
2023-02-11T00:50:56.976Z,7.10
2023-02-11T00:53:23.762Z,7.10
2023-02-11T00:55:50.947Z,7.20
2023-02-11T00:58:17.919Z,7.10
2023-02-11T01:00:44.741Z,7.10
2023-02-11T01:03:11.572Z,7.10
2023-02-11T01:05:38.469Z,7.10
2023-02-11T01:08:07.506Z,7.20
2023-02-11T01:10:34.273Z,7.20
2023-02-11T01:13:01.726Z,7.10
2023-02-11T01:15:28.706Z,7.10
2023-02-11T01:17:55.454Z,7.10
2023-02-11T01:20:25.927Z,7.10
2023-02-11T01:22:52.623Z,7.10
2023-02-11T01:25:19.780Z,7.00
2023-02-11T01:27:47.083Z,7.00
2023-02-11T01:30:14.431Z,7.00
2023-02-11T01:32:41.436Z,7.00
2023-02-11T01:35:08.285Z,7.00
2023-02-11T01:37:39.724Z,6.90
2023-02-11T01:40:14.508Z,6.90
2023-02-11T01:42:56.681Z,6.90
2023-02-11T01:45:46.203Z,6.80
2023-02-11T01:48:25.145Z,6.80
2023-02-11T01:50:57.132Z,6.70
2023-02-11T01:53:43.103Z,6.70
2023-02-11T01:56:29.953Z,6.60
2023-02-11T01:59:03.975Z,6.50
2023-02-11T02:01:33.705Z,6.50
2023-02-11T02:04:03.221Z,6.50
2023-02-11T02:06:46.436Z,6.50
2023-02-11T02:09:26.617Z,6.50
2023-02-11T02:11:53.465Z,6.40
2023-02-11T02:14:20.498Z,6.40
2023-02-11T02:16:47.422Z,6.30
2023-02-11T02:19:25.265Z,6.20
2023-02-11T02:22:40.402Z,6.10
2023-02-11T02:25:15.452Z,6.10
2023-02-11T02:28:24.000Z,6.00
2023-02-11T02:31:48.344Z,5.90
2023-02-11T02:34:39.793Z,5.80
2023-02-11T02:37:18.618Z,5.60
2023-02-11T02:39:48.655Z,5.40
2023-02-11T02:42:16.891Z,5.30
2023-02-11T02:44:49.867Z,5.10
2023-02-11T02:47:17.011Z,5.00
2023-02-11T02:49:43.838Z,4.80
2023-02-11T02:52:24.592Z,4.70
2023-02-11T02:55:16.406Z,4.50
2023-02-11T02:58:05.285Z,4.40
2023-02-11T03:00:50.123Z,4.40
2023-02-11T03:03:17.013Z,4.30
2023-02-11T03:05:57.047Z,4.30
2023-02-11T03:08:25.026Z,4.30
2023-02-11T03:10:54.241Z,4.20
2023-02-11T03:13:28.502Z,4.20
2023-02-11T03:15:58.707Z,4.30
2023-02-11T03:18:30.720Z,4.20
2023-02-11T03:20:58.245Z,4.20
2023-02-11T03:23:56.574Z,4.20
2023-02-11T03:26:40.468Z,4.20
2023-02-11T03:29:23.349Z,4.10
2023-02-11T03:32:07.069Z,4.10
2023-02-11T03:34:57.094Z,4.00
2023-02-11T03:37:36.710Z,4.00
2023-02-11T03:40:05.465Z,3.90
2023-02-11T03:42:50.838Z,3.90
2023-02-11T03:45:22.349Z,3.90
2023-02-11T03:48:01.867Z,3.90
2023-02-11T03:50:31.958Z,4.00
2023-02-11T03:53:01.302Z,4.00
2023-02-11T03:55:29.839Z,4.00
2023-02-11T03:57:56.969Z,4.00
2023-02-11T04:00:31.422Z,4.10
2023-02-11T04:02:58.407Z,4.20
2023-02-11T04:05:25.458Z,4.20
2023-02-11T04:07:52.161Z,4.30
2023-02-11T04:10:18.921Z,4.30
2023-02-11T04:12:45.631Z,4.40
2023-02-11T04:15:12.327Z,4.40
2023-02-11T04:17:39.227Z,4.40
2023-02-11T04:20:06.171Z,4.40
2023-02-11T04:22:32.848Z,4.40
2023-02-11T04:24:59.625Z,4.40
2023-02-11T04:27:26.377Z,4.30
2023-02-11T04:29:54.113Z,4.40
2023-02-11T04:32:21.022Z,4.40
2023-02-11T04:34:48.385Z,4.40
2023-02-11T04:37:15.247Z,4.40
2023-02-11T04:39:41.975Z,4.50
2023-02-11T04:42:08.721Z,4.50
2023-02-11T04:44:35.408Z,4.60
2023-02-11T04:47:02.138Z,4.60
2023-02-11T04:49:28.963Z,4.70
2023-02-11T04:51:56.175Z,4.70
2023-02-11T04:54:23.183Z,4.70
2023-02-11T04:56:51.133Z,4.70
2023-02-11T04:59:18.012Z,4.70
2023-02-11T05:01:44.855Z,4.70
2023-02-11T05:04:11.737Z,4.80
2023-02-11T05:06:39.900Z,4.80
2023-02-11T05:09:06.687Z,4.80
2023-02-11T05:11:33.600Z,4.80
2023-02-11T05:14:00.394Z,4.80
2023-02-11T05:16:27.216Z,4.80
2023-02-11T05:18:55.800Z,4.90
2023-02-11T05:21:22.837Z,4.90
2023-02-11T05:23:49.636Z,4.90
2023-02-11T05:26:16.791Z,4.90
2023-02-11T05:28:44.419Z,4.90
2023-02-11T05:31:12.167Z,4.90
2023-02-11T05:33:38.990Z,4.90
2023-02-11T05:36:08.977Z,5.00
2023-02-11T05:38:36.819Z,5.00
2023-02-11T05:41:04.674Z,5.10
2023-02-11T05:43:31.754Z,5.10
2023-02-11T05:45:58.705Z,5.20
2023-02-11T05:48:25.498Z,5.20
2023-02-11T05:50:52.509Z,5.30
2023-02-11T05:53:19.327Z,5.30
2023-02-11T05:55:46.351Z,5.30
2023-02-11T05:58:13.716Z,5.40
2023-02-11T06:00:40.770Z,5.40
2023-02-11T06:03:08.150Z,5.50
2023-02-11T06:05:34.982Z,5.50
2023-02-11T06:08:01.753Z,5.50
2023-02-11T06:10:28.730Z,5.50
2023-02-11T06:12:55.550Z,5.60
2023-02-11T06:15:22.293Z,5.50
2023-02-11T06:17:49.078Z,5.50
2023-02-11T06:20:16.166Z,5.50
2023-02-11T06:22:42.952Z,5.50
2023-02-11T06:25:11.174Z,5.50
2023-02-11T06:27:38.450Z,5.50
2023-02-11T06:30:06.928Z,5.60
2023-02-11T06:32:49.607Z,5.60
2023-02-11T06:35:16.449Z,5.60
2023-02-11T06:37:43.916Z,5.60
2023-02-11T06:40:11.622Z,5.50
2023-02-11T06:42:39.192Z,5.50
2023-02-11T06:45:09.123Z,5.60
2023-02-11T06:47:36.040Z,5.60
2023-02-11T06:50:03.655Z,5.70
2023-02-11T06:52:30.424Z,5.80
2023-02-11T06:55:01.182Z,5.90
2023-02-11T06:57:27.921Z,5.90
2023-02-11T06:59:55.662Z,5.90
2023-02-11T07:02:22.363Z,5.90
2023-02-11T07:04:49.242Z,5.90
2023-02-11T07:07:16.081Z,5.80
2023-02-11T07:09:42.949Z,5.90
2023-02-11T07:12:10.706Z,5.90
2023-02-11T07:14:37.469Z,5.90
2023-02-11T07:17:04.834Z,5.90
2023-02-11T07:19:31.960Z,5.90
2023-02-11T07:21:58.706Z,5.90
2023-02-11T07:24:25.576Z,5.90
2023-02-11T07:27:04.716Z,6.00
2023-02-11T07:29:35.900Z,6.00
2023-02-11T07:32:02.939Z,6.00
2023-02-11T07:34:31.008Z,6.00
2023-02-11T07:36:57.812Z,6.10
2023-02-11T07:39:46.483Z,6.10
2023-02-11T07:42:13.259Z,6.10
2023-02-11T07:44:39.957Z,6.20
2023-02-11T07:47:06.722Z,6.20
2023-02-11T07:49:34.324Z,6.20
2023-02-11T07:52:01.047Z,6.30
2023-02-11T07:54:29.274Z,6.30
2023-02-11T07:56:56.009Z,6.40
2023-02-11T07:59:26.006Z,6.40
2023-02-11T08:01:53.041Z,6.50
2023-02-11T08:04:20.945Z,6.60
2023-02-11T08:06:47.744Z,6.70
2023-02-11T08:09:19.230Z,6.80
2023-02-11T08:11:46.023Z,6.80
2023-02-11T08:14:13.228Z,6.90
2023-02-11T08:16:41.316Z,6.90
2023-02-11T08:19:12.347Z,7.00
2023-02-11T08:21:39.642Z,7.00
2023-02-11T08:24:07.022Z,7.10
2023-02-11T08:26:35.019Z,7.10
2023-02-11T08:29:15.944Z,7.10
2023-02-11T08:31:46.592Z,7.20
2023-02-11T08:34:14.553Z,7.20
2023-02-11T08:36:44.933Z,7.30
2023-02-11T08:39:22.383Z,7.30
2023-02-11T08:41:53.246Z,7.30
2023-02-11T08:44:26.279Z,7.40
2023-02-11T08:49:36.289Z,7.40
2023-02-11T08:52:05.169Z,7.40
2023-02-11T08:57:51.788Z,7.40
2023-02-11T09:00:20.594Z,7.40
2023-02-11T09:02:49.328Z,7.40
2023-02-11T09:05:19.377Z,7.50
2023-02-11T09:07:46.353Z,7.50
2023-02-11T09:10:13.824Z,7.60
2023-02-11T09:12:43.355Z,7.60
2023-02-11T09:15:10.379Z,7.70
2023-02-11T09:17:37.437Z,7.80
2023-02-11T09:20:04.642Z,7.90
2023-02-11T09:22:33.157Z,8.00
2023-02-11T09:25:01.022Z,8.20
2023-02-11T09:27:27.703Z,8.30
2023-02-11T09:29:54.622Z,8.40
2023-02-11T09:32:21.642Z,8.50
2023-02-11T09:34:52.870Z,8.60
2023-02-11T09:37:19.920Z,8.70
2023-02-11T09:39:47.744Z,8.80
2023-02-11T09:42:35.690Z,8.80
2023-02-11T09:45:04.882Z,8.80
2023-02-11T09:47:41.385Z,8.80
2023-02-11T09:50:14.290Z,8.80
2023-02-11T09:53:09.409Z,8.80
2023-02-11T09:55:42.681Z,8.80
2023-02-11T09:58:30.114Z,8.90
2023-02-11T10:01:09.169Z,8.90
2023-02-11T10:04:00.724Z,9.00
2023-02-11T10:06:40.865Z,9.10
2023-02-11T10:09:37.637Z,9.10
2023-02-11T10:12:35.474Z,9.10
2023-02-11T10:15:14.172Z,9.20
2023-02-11T10:18:07.704Z,9.20
2023-02-11T10:21:10.223Z,9.20
2023-02-11T10:26:24.176Z,9.30
2023-02-11T10:28:54.629Z,9.40
2023-02-11T10:31:27.753Z,9.50
2023-02-11T10:34:05.568Z,9.70
2023-02-11T10:36:41.325Z,9.90
2023-02-11T10:39:17.804Z,10.10
2023-02-11T10:41:53.216Z,10.20
2023-02-11T10:44:46.812Z,10.40
2023-02-11T10:47:22.098Z,10.60
2023-02-11T10:49:49.959Z,10.90
2023-02-11T10:52:23.738Z,11.00
2023-02-11T10:55:03.690Z,11.10
2023-02-11T10:57:34.920Z,11.10
2023-02-11T11:00:21.383Z,11.10
2023-02-11T11:02:59.634Z,11.10
2023-02-11T11:05:36.522Z,11.00
2023-02-11T11:08:07.349Z,11.00
2023-02-11T11:10:44.742Z,10.90
2023-02-11T11:13:28.196Z,10.90
2023-02-11T11:16:13.466Z,10.90
2023-02-11T11:18:42.105Z,11.00
2023-02-11T11:21:36.528Z,11.10
2023-02-11T11:24:04.106Z,11.10
2023-02-11T11:26:48.911Z,11.10
2023-02-11T11:29:46.560Z,11.00
2023-02-11T11:32:20.831Z,10.90
2023-02-11T11:34:55.728Z,10.90
2023-02-11T11:37:33.442Z,10.80
2023-02-11T11:40:29.064Z,10.80
2023-02-11T11:43:23.166Z,10.80
2023-02-11T11:45:56.154Z,10.80
2023-02-11T11:48:28.472Z,10.80
2023-02-11T11:51:03.623Z,10.80
2023-02-11T11:53:51.255Z,10.90
2023-02-11T11:56:53.120Z,11.00
2023-02-11T11:59:20.441Z,11.30
2023-02-11T12:01:55.206Z,11.50
2023-02-11T12:04:31.335Z,11.70
2023-02-11T12:07:16.630Z,11.80
2023-02-11T12:09:56.102Z,11.80
2023-02-11T12:12:53.438Z,11.70
2023-02-11T12:15:34.426Z,11.60
2023-02-11T12:18:25.589Z,11.50
2023-02-11T12:21:04.139Z,11.50
2023-02-11T12:23:33.727Z,11.30
2023-02-11T12:26:17.887Z,11.20
2023-02-11T12:29:15.668Z,11.00
2023-02-11T12:31:57.582Z,10.90
2023-02-11T12:35:11.978Z,10.90
2023-02-11T12:37:48.122Z,10.90
2023-02-11T12:40:44.943Z,11.10
2023-02-11T12:43:26.877Z,11.30
2023-02-11T12:46:39.068Z,11.40
2023-02-11T12:49:15.139Z,11.40
2023-02-11T12:52:13.901Z,11.40
2023-02-11T12:55:04.904Z,11.50
2023-02-11T12:57:35.233Z,11.50
2023-02-11T13:00:25.349Z,11.50
2023-02-11T13:03:31.935Z,11.50
2023-02-11T13:06:05.083Z,11.50
2023-02-11T13:08:49.465Z,11.60
2023-02-11T13:11:26.793Z,11.60
2023-02-11T13:14:04.550Z,11.70
2023-02-11T13:16:44.419Z,11.80
2023-02-11T13:19:17.156Z,11.70
2023-02-11T13:22:05.264Z,11.70
2023-02-11T13:24:51.503Z,11.70
2023-02-11T13:27:37.344Z,11.50
2023-02-11T13:30:33.704Z,11.50
2023-02-11T13:33:03.341Z,11.40
2023-02-11T13:35:32.039Z,11.40
2023-02-11T13:38:07.185Z,11.40
2023-02-11T13:40:40.232Z,11.30
2023-02-11T13:43:21.784Z,11.40
2023-02-11T13:45:52.507Z,11.40
2023-02-11T13:48:31.675Z,11.40
2023-02-11T13:51:02.928Z,11.40
2023-02-11T13:53:30.028Z,11.50
2023-02-11T13:56:25.863Z,11.40
2023-02-11T13:58:53.605Z,11.40
2023-02-11T14:02:20.787Z,11.30
2023-02-11T14:05:24.174Z,11.30
2023-02-11T14:08:33.167Z,11.30
2023-02-11T14:11:13.742Z,11.30
2023-02-11T14:13:49.575Z,11.30
2023-02-11T14:16:28.302Z,11.30
2023-02-11T14:19:06.902Z,11.30
2023-02-11T14:21:42.097Z,11.20
2023-02-11T14:24:14.387Z,11.20
2023-02-11T14:26:56.856Z,11.20
2023-02-11T14:30:02.662Z,11.30
2023-02-11T14:32:56.703Z,11.30
2023-02-11T14:35:48.349Z,11.20
2023-02-11T14:38:35.967Z,11.10
2023-02-11T14:41:24.076Z,11.00
2023-02-11T14:43:58.745Z,10.90
2023-02-11T14:46:35.672Z,10.80
2023-02-11T14:49:05.400Z,10.70
2023-02-11T14:51:41.297Z,10.70
2023-02-11T14:54:17.476Z,10.70
2023-02-11T14:56:45.701Z,10.70
2023-02-11T14:59:23.692Z,10.80
2023-02-11T15:02:08.131Z,10.80
2023-02-11T15:04:39.242Z,10.80
2023-02-11T15:07:08.547Z,10.80
2023-02-11T15:09:50.785Z,10.70
2023-02-11T15:12:25.612Z,10.70
2023-02-11T15:14:58.666Z,10.60
2023-02-11T15:17:32.092Z,10.60
2023-02-11T15:20:08.060Z,10.50
2023-02-11T15:22:37.376Z,10.50
2023-02-11T15:25:18.069Z,10.40
2023-02-11T15:27:48.582Z,10.40
2023-02-11T15:30:21.434Z,10.30
2023-02-11T15:32:49.307Z,10.30
2023-02-11T15:35:17.595Z,10.30
2023-02-11T15:37:45.388Z,10.20
2023-02-11T15:40:19.018Z,10.20
2023-02-11T15:43:02.794Z,10.20
2023-02-11T15:45:37.691Z,10.10
2023-02-11T15:48:18.648Z,10.10
2023-02-11T15:50:52.914Z,10.00
2023-02-11T15:53:23.141Z,10.00
2023-02-11T15:55:52.849Z,10.00
2023-02-11T15:58:23.617Z,9.90
2023-02-11T16:00:59.669Z,9.90
2023-02-11T16:03:32.598Z,9.80
2023-02-11T16:06:35.084Z,9.80
2023-02-11T16:09:12.518Z,9.80
2023-02-11T16:11:48.258Z,9.70
2023-02-11T16:14:37.163Z,9.60
2023-02-11T16:17:21.316Z,9.60
2023-02-11T16:19:50.720Z,9.50
2023-02-11T16:22:26.520Z,9.50
2023-02-11T16:24:56.860Z,9.40
2023-02-11T16:27:32.755Z,9.40
2023-02-11T16:29:59.720Z,9.30
2023-02-11T16:32:29.150Z,9.30
2023-02-11T16:35:12.316Z,9.20
2023-02-11T16:37:39.063Z,9.20
2023-02-11T16:40:06.579Z,9.10
2023-02-11T16:42:33.296Z,9.10
2023-02-11T16:45:00.296Z,9.10
2023-02-11T16:47:28.690Z,9.10
2023-02-11T16:49:56.291Z,9.00
2023-02-11T16:52:23.547Z,9.00
2023-02-11T16:54:50.528Z,9.00
2023-02-11T16:57:23.139Z,8.90
2023-02-11T16:59:50.731Z,8.90
2023-02-11T17:02:24.064Z,8.90
2023-02-11T17:04:55.240Z,8.90
2023-02-11T17:07:22.297Z,8.80
2023-02-11T17:09:49.092Z,8.80
2023-02-11T17:12:15.905Z,8.80
2023-02-11T17:14:42.700Z,8.80
2023-02-11T17:17:10.686Z,8.80
2023-02-11T17:19:37.887Z,8.80
2023-02-11T17:22:05.050Z,8.80
2023-02-11T17:24:32.134Z,8.80
2023-02-11T17:26:59.160Z,8.70
2023-02-11T17:29:26.423Z,8.70
2023-02-11T17:31:53.880Z,8.70
2023-02-11T17:34:22.073Z,8.70
2023-02-11T17:36:49.238Z,8.70
2023-02-11T17:39:16.087Z,8.60
2023-02-11T17:41:42.875Z,8.60
2023-02-11T17:44:12.416Z,8.60
2023-02-11T17:46:39.357Z,8.60
2023-02-11T17:49:06.133Z,8.60
2023-02-11T17:51:44.370Z,8.60
2023-02-11T17:54:14.584Z,8.60
2023-02-11T17:56:41.925Z,8.60
2023-02-11T17:59:09.962Z,8.60
2023-02-11T18:01:38.860Z,8.60
2023-02-11T18:04:06.730Z,8.60
2023-02-11T18:06:36.781Z,8.60
2023-02-11T18:09:04.449Z,8.50
2023-02-11T18:11:33.694Z,8.50
2023-02-11T18:14:02.116Z,8.50
2023-02-11T18:16:30.429Z,8.50
2023-02-11T18:18:58.632Z,8.50
2023-02-11T18:21:25.834Z,8.50
2023-02-11T18:23:52.880Z,8.50
2023-02-11T18:26:21.557Z,8.40
2023-02-11T18:28:48.483Z,8.40
2023-02-11T18:31:15.671Z,8.40
2023-02-11T18:33:42.839Z,8.40
2023-02-11T18:36:15.094Z,8.40
2023-02-11T18:38:44.341Z,8.40
2023-02-11T18:41:13.300Z,8.40
2023-02-11T18:43:40.437Z,8.40
2023-02-11T18:46:12.919Z,8.40
2023-02-11T18:48:40.464Z,8.40
2023-02-11T18:51:12.523Z,8.40
2023-02-11T18:53:39.759Z,8.40
2023-02-11T18:56:12.000Z,8.40
2023-02-11T18:58:39.602Z,8.30
2023-02-11T19:01:22.911Z,8.40
2023-02-11T19:03:50.323Z,8.30
2023-02-11T19:06:26.473Z,8.30
2023-02-11T19:08:59.911Z,8.30
2023-02-11T19:11:47.526Z,8.30
2023-02-11T19:14:22.377Z,8.30
2023-02-11T19:16:51.322Z,8.30
2023-02-11T19:19:18.418Z,8.30
2023-02-11T19:21:46.172Z,8.30
2023-02-11T19:24:15.574Z,8.30
2023-02-11T19:26:43.010Z,8.30
2023-02-11T19:29:09.794Z,8.30
2023-02-11T19:31:37.230Z,8.30
2023-02-11T19:34:04.972Z,8.30
2023-02-11T19:36:32.002Z,8.30
2023-02-11T19:39:03.860Z,8.30
2023-02-11T19:41:31.446Z,8.30
2023-02-11T19:43:58.251Z,8.30
2023-02-11T19:46:26.413Z,8.30
2023-02-11T19:48:53.902Z,8.30
2023-02-11T19:51:25.997Z,8.30
2023-02-11T19:53:53.908Z,8.30
2023-02-11T19:56:22.305Z,8.30
2023-02-11T19:58:49.082Z,8.30
2023-02-11T20:01:21.530Z,8.30
2023-02-11T20:03:50.055Z,8.20
2023-02-11T20:06:23.472Z,8.20
2023-02-11T20:09:00.742Z,8.20
2023-02-11T20:11:30.054Z,8.20
2023-02-11T20:13:57.669Z,8.20
2023-02-11T20:16:40.777Z,8.30
2023-02-11T20:19:17.597Z,8.30
2023-02-11T20:21:47.343Z,8.30
2023-02-11T20:24:15.486Z,8.30
2023-02-11T20:26:42.545Z,8.30
2023-02-11T20:29:09.837Z,8.30
2023-02-11T20:31:37.081Z,8.30
2023-02-11T20:34:04.154Z,8.30
2023-02-11T20:36:35.676Z,8.20
2023-02-11T20:39:04.957Z,8.20
2023-02-11T20:41:35.273Z,8.20
2023-02-11T20:44:05.238Z,8.20
2023-02-11T20:46:33.630Z,8.20
2023-02-11T20:49:01.024Z,8.20
2023-02-11T20:51:36.951Z,8.20
2023-02-11T20:54:04.125Z,8.20
2023-02-11T20:56:32.505Z,8.20
2023-02-11T20:59:00.120Z,8.20
2023-02-11T21:01:40.889Z,8.20
2023-02-11T21:04:12.592Z,8.20
2023-02-11T21:06:41.868Z,8.20
2023-02-11T21:09:10.853Z,8.20
2023-02-11T21:11:37.686Z,8.20
2023-02-11T21:14:04.610Z,8.20
2023-02-11T21:16:41.600Z,8.20
2023-02-11T21:19:18.370Z,8.20
2023-02-11T21:21:57.314Z,8.20
2023-02-11T21:24:24.057Z,8.20
2023-02-11T21:26:50.795Z,8.20
2023-02-11T21:29:17.527Z,8.20
2023-02-11T21:31:44.542Z,8.20
2023-02-11T21:34:11.509Z,8.20
2023-02-11T21:36:38.359Z,8.20
2023-02-11T21:39:05.930Z,8.20
2023-02-11T21:41:39.898Z,8.20
2023-02-11T21:44:06.676Z,8.20
2023-02-11T21:46:33.748Z,8.20
2023-02-11T21:49:00.663Z,8.20
2023-02-11T21:51:28.075Z,8.20
2023-02-11T21:54:01.291Z,8.20
2023-02-11T21:56:30.107Z,8.20
2023-02-11T21:58:59.808Z,8.20
2023-02-11T22:01:35.194Z,8.20
2023-02-11T22:04:02.009Z,8.20
2023-02-11T22:06:31.515Z,8.20
2023-02-11T22:08:59.508Z,8.20
2023-02-11T22:11:26.223Z,8.20
2023-02-11T22:13:55.170Z,8.20
2023-02-11T22:16:22.410Z,8.20
2023-02-11T22:18:49.210Z,8.20
2023-02-11T22:21:18.154Z,8.20
2023-02-11T22:23:45.281Z,8.20
2023-02-11T22:26:17.908Z,8.20
2023-02-11T22:28:45.509Z,8.20
2023-02-11T22:31:15.466Z,8.20
2023-02-11T22:33:42.412Z,8.10
2023-02-11T22:36:17.026Z,8.10
2023-02-11T22:38:44.005Z,8.10
2023-02-11T22:41:11.634Z,8.10
2023-02-11T22:43:39.498Z,8.10
2023-02-11T22:46:07.837Z,8.10
2023-02-11T22:48:35.853Z,8.10
2023-02-11T22:51:07.374Z,8.10
2023-02-11T22:53:34.380Z,8.10
2023-02-11T22:56:09.830Z,8.10
2023-02-11T22:58:37.948Z,8.10
2023-02-11T23:01:05.958Z,8.10
2023-02-11T23:03:34.297Z,8.10
2023-02-11T23:06:01.153Z,8.10
2023-02-11T23:08:29.165Z,8.10
2023-02-11T23:10:56.219Z,8.10
2023-02-11T23:13:23.064Z,8.10
2023-02-11T23:15:49.864Z,8.10
2023-02-11T23:18:16.575Z,8.10
2023-02-11T23:20:44.578Z,8.10
2023-02-11T23:23:11.249Z,8.10
2023-02-11T23:25:43.455Z,8.10
2023-02-11T23:28:11.608Z,8.10
2023-02-11T23:30:38.653Z,8.10
2023-02-11T23:33:06.043Z,8.10
2023-02-11T23:35:33.255Z,8.10
2023-02-11T23:38:00.039Z,8.10
2023-02-11T23:40:26.827Z,8.10
2023-02-11T23:42:53.577Z,8.10
2023-02-11T23:45:35.400Z,8.00
2023-02-11T23:48:02.077Z,8.10
2023-02-11T23:50:28.780Z,8.10
2023-02-11T23:52:55.732Z,8.10
2023-02-11T23:55:22.675Z,8.10
2023-02-11T23:57:49.389Z,8.10
